Time;durP1;ratioP1;P1;durP2;ratioP2;P2;SDS_P1;SDS_P2;PMS_P1;PMS_P2;Temp;Humidity;BMP_temperature;BMP_pressure;BME280_temperature;BME280_humidity;BME280_pressure;Samples;Min_cycle;Max_cycle;Signal;HPM_P1;HPM_P2
2021/08/27 00:01:17;;;;;;;2.90;2.70;;;15.20;99.50;;;;;;5074929;28;20020;-67
2021/08/27 00:03:45;;;;;;;2.83;2.63;;;15.20;98.90;;;;;;5074837;28;20025;-69
2021/08/27 00:06:12;;;;;;;3.00;2.70;;;15.20;99.50;;;;;;5074530;28;20016;-68
2021/08/27 00:08:39;;;;;;;3.50;2.60;;;15.30;99.10;;;;;;5074116;28;20031;-68
2021/08/27 00:11:07;;;;;;;4.72;2.67;;;15.40;99.00;;;;;;5074145;28;20039;-67
2021/08/27 00:13:34;;;;;;;2.95;2.75;;;15.40;99.30;;;;;;5073837;28;20460;-67
2021/08/27 00:16:01;;;;;;;3.50;3.13;;;15.50;98.90;;;;;;5073962;28;20051;-67
2021/08/27 00:18:29;;;;;;;5.20;3.05;;;15.60;99.00;;;;;;5073919;28;20389;-67
2021/08/27 00:20:56;;;;;;;3.28;2.97;;;15.70;99.20;;;;;;5074204;28;20432;-66
2021/08/27 00:23:23;;;;;;;3.42;3.13;;;15.80;98.80;;;;;;5073898;28;20017;-66
2021/08/27 00:25:51;;;;;;;3.67;3.28;;;15.90;98.60;;;;;;5073975;28;20024;-65
2021/08/27 00:28:18;;;;;;;3.75;3.38;;;15.90;98.80;;;;;;5074132;28;20504;-66
2021/08/27 00:30:46;;;;;;;6.43;3.92;;;16.00;98.60;;;;;;5073823;28;20032;-66
2021/08/27 00:33:13;;;;;;;3.92;3.53;;;16.10;98.70;;;;;;5073751;28;20028;-67
2021/08/27 00:35:41;;;;;;;5.38;3.28;;;16.20;98.30;;;;;;5073675;28;20052;-67
2021/08/27 00:38:14;;;;;;;3.83;3.20;;;16.30;98.00;;;;;;5073651;28;20020;-67
2021/08/27 00:40:43;;;;;;;4.78;3.20;;;16.40;97.80;;;;;;5073720;28;20465;-67
2021/08/27 00:43:12;;;;;;;3.55;3.25;;;16.60;97.80;;;;;;5073564;28;20035;-66
2021/08/27 00:45:44;;;;;;;5.18;3.15;;;16.70;97.30;;;;;;5073633;28;20019;-65
2021/08/27 00:48:12;;;;;;;4.32;3.40;;;16.80;96.70;;;;;;5073434;28;20358;-65
2021/08/27 00:50:40;;;;;;;3.28;3.08;;;17.00;96.80;;;;;;5073527;28;20025;-65
2021/08/27 00:53:08;;;;;;;4.07;2.92;;;16.90;95.50;;;;;;5073321;28;20028;-66
2021/08/27 00:55:36;;;;;;;5.28;2.83;;;16.90;94.70;;;;;;5072124;28;20048;-66
2021/08/27 00:58:05;;;;;;;3.28;3.08;;;16.80;95.00;;;;;;5071934;28;20111;-66
2021/08/27 01:00:34;;;;;;;3.25;3.05;;;17.00;95.10;;;;;;5073661;28;20023;-67
2021/08/27 01:03:02;;;;;;;3.10;2.90;;;17.00;94.90;;;;;;5073296;28;20472;-66
2021/08/27 01:05:33;;;;;;;3.50;3.13;;;16.90;94.90;;;;;;5073211;28;20081;-67
2021/08/27 01:08:11;;;;;;;3.05;2.75;;;17.00;94.90;;;;;;5073262;28;20021;-67
2021/08/27 01:10:45;;;;;;;3.30;3.00;;;17.10;94.80;;;;;;5073384;28;20059;-68
2021/08/27 01:13:27;;;;;;;2.70;2.50;;;17.30;94.10;;;;;;5072916;28;20016;-67
2021/08/27 01:16:03;;;;;;;2.40;2.20;;;17.40;93.60;;;;;;5073175;28;20052;-68
2021/08/27 01:18:52;;;;;;;2.58;2.45;;;17.40;93.00;;;;;;5073207;28;20021;-66
2021/08/27 01:21:46;;;;;;;5.75;2.92;;;17.40;93.00;;;;;;5073056;28;20021;-65
2021/08/27 01:24:14;;;;;;;2.63;2.50;;;17.60;93.60;;;;;;5072949;28;20021;-66
2021/08/27 01:26:47;;;;;;;3.00;2.80;;;17.60;92.60;;;;;;5072838;28;20017;-66
2021/08/27 01:29:20;;;;;;;3.95;2.60;;;17.60;92.50;;;;;;5071731;28;20027;-66
2021/08/27 01:31:54;;;;;;;3.17;2.97;;;17.80;92.40;;;;;;5072712;28;20021;-66
2021/08/27 01:34:35;;;;;;;4.13;2.50;;;18.10;91.40;;;;;;5072855;28;20103;-65
2021/08/27 01:37:03;;;;;;;2.78;2.65;;;18.20;91.30;;;;;;5072805;28;20055;-65
2021/08/27 01:39:51;;;;;;;2.63;2.42;;;18.20;90.50;;;;;;5072640;28;20025;-65
2021/08/27 01:42:22;;;;;;;2.60;2.40;;;18.20;90.60;;;;;;5072714;28;20381;-65
2021/08/27 01:44:51;;;;;;;3.00;2.80;;;18.20;90.00;;;;;;5072780;28;20020;-67
2021/08/27 01:47:25;;;;;;;3.55;3.00;;;18.50;90.00;;;;;;5072480;28;20078;-66
2021/08/27 01:49:54;;;;;;;2.90;2.80;;;18.30;85.30;;;;;;5071261;28;20025;-67
2021/08/27 01:52:21;;;;;;;3.10;2.90;;;18.20;82.80;;;;;;5071128;28;20119;-66
2021/08/27 01:54:49;;;;;;;3.40;3.20;;;18.30;85.00;;;;;;5072535;28;20078;-66
2021/08/27 01:57:18;;;;;;;2.90;2.70;;;18.40;83.60;;;;;;5072495;28;20445;-66
2021/08/27 01:59:47;;;;;;;2.90;2.70;;;18.70;83.30;;;;;;5071114;28;20020;-66
2021/08/27 02:02:17;;;;;;;2.83;2.53;;;18.90;83.70;;;;;;5072490;28;20052;-67
2021/08/27 02:04:50;;;;;;;3.00;2.70;;;19.10;84.60;;;;;;5072614;28;20020;-67
2021/08/27 02:07:18;;;;;;;2.75;2.63;;;19.40;83.20;;;;;;5072630;28;20052;-66
2021/08/27 02:09:46;;;;;;;3.00;2.80;;;19.50;80.30;;;;;;5072536;28;20123;-66
2021/08/27 02:12:15;;;;;;;3.33;3.10;;;19.40;80.90;;;;;;5072409;28;20021;-66
2021/08/27 02:14:43;;;;;;;2.60;2.40;;;19.50;79.40;;;;;;5072182;28;20048;-66
2021/08/27 02:17:11;;;;;;;2.72;2.63;;;19.20;80.00;;;;;;5072528;28;20028;-66
2021/08/27 02:19:39;;;;;;;2.88;2.65;;;18.80;79.00;;;;;;5076513;28;20023;-67
2021/08/27 02:22:09;;;;;;;2.60;2.50;;;18.40;79.90;;;;;;5076382;28;20422;-66
2021/08/27 02:24:47;;;;;;;2.63;2.53;;;18.30;81.40;;;;;;5076422;28;20024;-66
2021/08/27 02:27:15;;;;;;;2.50;2.40;;;18.70;80.20;;;;;;5076293;28;20730;-65
2021/08/27 02:29:45;;;;;;;2.60;2.50;;;19.10;80.80;;;;;;5076368;28;20024;-67
2021/08/27 02:32:13;;;;;;;2.28;2.17;;;19.50;78.10;;;;;;5074856;28;20020;-67
2021/08/27 02:34:43;;;;;;;2.60;2.40;;;19.40;79.70;;;;;;5076173;28;20115;-67
2021/08/27 02:37:15;;;;;;;2.20;2.10;;;19.60;77.50;;;;;;5076013;28;20389;-66
2021/08/27 02:39:43;;;;;;;2.22;2.10;;;19.60;76.80;;;;;;5075951;28;20264;-67
2021/08/27 02:42:12;;;;;;;2.15;2.05;;;19.90;78.20;;;;;;5075815;28;20169;-66
2021/08/27 02:44:39;;;;;;;2.40;2.30;;;20.00;76.80;;;;;;5074457;28;20120;-68
2021/08/27 02:47:07;;;;;;;2.70;2.50;;;19.70;77.50;;;;;;5075886;28;20564;-67
2021/08/27 02:49:35;;;;;;;2.50;2.33;;;19.40;78.70;;;;;;5075719;28;20048;-67
2021/08/27 02:52:23;;;;;;;2.70;2.50;;;19.20;78.30;;;;;;5075697;28;20027;-67
2021/08/27 02:54:57;;;;;;;2.65;2.55;;;18.80;77.50;;;;;;5075693;28;20104;-66
2021/08/27 02:57:27;;;;;;;2.30;2.10;;;18.50;77.90;;;;;;5075656;28;20056;-67
2021/08/27 02:59:58;;;;;;;3.15;2.80;;;18.40;79.40;;;;;;5075701;28;20123;-66
2021/08/27 03:02:28;;;;;;;2.70;2.60;;;18.50;79.90;;;;;;5074534;28;20075;-67
2021/08/27 03:05:09;;;;;;;2.80;2.60;;;18.30;77.50;;;;;;5075511;28;20044;-68
2021/08/27 03:07:42;;;;;;;3.10;2.90;;;18.40;77.10;;;;;;5074312;28;20024;-69
2021/08/27 03:10:13;;;;;;;2.92;2.72;;;18.50;77.80;;;;;;5075463;28;20031;-68
2021/08/27 03:12:46;;;;;;;;;;;18.60;77.60;;;;;;5075887;28;20450;-68
2021/08/27 03:15:31;;;;;;;2.70;2.50;;;18.70;74.00;;;;;;5075466;28;20341;-68
2021/08/27 03:18:08;;;;;;;2.67;2.47;;;18.80;73.90;;;;;;5075185;28;20466;-68
2021/08/27 03:20:48;;;;;;;2.63;2.53;;;18.80;72.10;;;;;;5075251;28;20036;-70
2021/08/27 03:23:18;;;;;;;2.80;2.60;;;18.90;72.10;;;;;;5075436;28;20023;-68
2021/08/27 03:25:47;;;;;;;2.15;2.03;;;18.80;71.60;;;;;;5075227;28;20384;-68
2021/08/27 03:28:25;;;;;;;2.15;2.05;;;18.80;71.00;;;;;;5074960;28;20476;-68
2021/08/27 03:30:55;;;;;;;2.60;2.47;;;18.90;71.50;;;;;;5073032;28;20481;-68
2021/08/27 03:33:27;;;;;;;3.90;3.03;;;18.80;71.40;;;;;;5075026;28;20099;-68
2021/08/27 03:35:56;;;;;;;2.70;2.60;;;18.80;71.60;;;;;;5074996;28;20108;-68
2021/08/27 03:38:26;;;;;;;2.65;2.45;;;18.80;71.00;;;;;;5074835;28;20028;-67
2021/08/27 03:40:55;;;;;;;5.57;2.50;;;18.70;72.60;;;;;;5073473;28;20025;-67
2021/08/27 03:43:24;;;;;;;2.65;2.45;;;18.90;71.30;;;;;;5074866;28;20052;-68
2021/08/27 03:45:53;;;;;;;2.30;2.20;;;19.00;70.70;;;;;;5074809;28;20422;-67
2021/08/27 03:48:23;;;;;;;2.50;2.30;;;19.00;69.70;;;;;;5074776;28;20020;-67
2021/08/27 03:50:52;;;;;;;2.50;2.30;;;19.10;69.50;;;;;;5074645;28;20033;-68
2021/08/27 03:53:21;;;;;;;3.42;2.40;;;19.50;69.60;;;;;;5074714;28;20183;-66
2021/08/27 03:55:50;;;;;;;2.60;2.50;;;19.90;69.20;;;;;;5074562;28;20031;-68
2021/08/27 03:58:20;;;;;;;3.63;2.60;;;20.30;71.10;;;;;;5074608;28;20073;-68
2021/08/27 04:00:49;;;;;;;2.50;2.30;;;20.20;68.60;;;;;;5074579;28;20028;-68
2021/08/27 04:03:18;;;;;;;2.50;2.40;;;20.40;67.60;;;;;;5074434;28;20066;-68
2021/08/27 04:06:18;;;;;;;2.58;2.40;;;20.70;68.30;;;;;;5074442;28;20048;-68
2021/08/27 04:08:46;;;;;;;3.33;2.22;;;20.00;66.40;;;;;;5041252;28;20025;-67
2021/08/27 04:11:17;;;;;;;2.45;2.35;;;20.10;67.70;;;;;;5074324;28;20024;-68
2021/08/27 04:13:44;;;;;;;2.40;2.30;;;19.90;68.00;;;;;;5074117;28;20111;-69
2021/08/27 04:16:12;;;;;;;2.78;2.67;;;19.70;68.00;;;;;;5072969;28;20030;-69
2021/08/27 04:18:39;;;;;;;2.88;2.67;;;19.40;68.80;;;;;;5074135;28;20021;-69
2021/08/27 04:21:07;;;;;;;2.65;2.55;;;19.30;67.50;;;;;;5074052;28;20479;-68
2021/08/27 04:23:34;;;;;;;3.05;2.75;;;19.40;67.60;;;;;;5073971;28;20048;-68
2021/08/27 04:26:02;;;;;;;2.60;2.40;;;19.40;68.70;;;;;;5074012;28;20055;-68
2021/08/27 04:28:29;;;;;;;2.28;2.17;;;19.70;67.10;;;;;;5073914;28;20549;-68
2021/08/27 04:30:56;;;;;;;2.63;2.50;;;19.50;68.50;;;;;;5073910;28;20023;-68
2021/08/27 04:33:24;;;;;;;2.70;2.60;;;19.40;68.40;;;;;;5072475;28;20074;-68
2021/08/27 04:35:51;;;;;;;2.70;2.60;;;19.50;68.50;;;;;;5073713;28;20021;-68
2021/08/27 04:38:18;;;;;;;3.40;3.10;;;19.40;68.10;;;;;;5072309;28;20051;-69
2021/08/27 04:40:46;;;;;;;3.10;3.00;;;19.40;67.20;;;;;;5072032;28;20021;-68
2021/08/27 04:43:13;;;;;;;3.00;2.90;;;19.50;69.20;;;;;;5072372;28;20396;-68
2021/08/27 04:45:40;;;;;;;3.22;2.50;;;19.60;67.60;;;;;;5072310;28;20036;-68
2021/08/27 04:48:08;;;;;;;3.10;2.90;;;19.40;66.70;;;;;;5073667;28;20104;-68
2021/08/27 04:50:35;;;;;;;2.55;2.42;;;19.50;68.00;;;;;;5073510;28;20114;-68
2021/08/27 04:53:02;;;;;;;2.70;2.60;;;19.40;67.50;;;;;;5073569;28;20124;-68
2021/08/27 04:55:30;;;;;;;2.97;2.78;;;19.40;67.00;;;;;;5072127;28;20024;-68
2021/08/27 04:57:57;;;;;;;2.90;2.80;;;19.50;68.30;;;;;;5073357;28;20412;-69
2021/08/27 05:00:24;;;;;;;2.53;2.42;;;19.30;68.80;;;;;;5073318;28;20104;-69
2021/08/27 05:02:52;;;;;;;2.50;2.40;;;19.40;69.20;;;;;;5073424;28;20048;-69
2021/08/27 05:05:19;;;;;;;2.90;2.70;;;19.40;70.60;;;;;;5073200;28;20447;-69
2021/08/27 05:07:46;;;;;;;2.80;2.60;;;19.30;70.40;;;;;;5073111;28;20024;-70
2021/08/27 05:10:14;;;;;;;2.60;2.50;;;19.20;70.20;;;;;;5073140;28;20481;-69
2021/08/27 05:12:41;;;;;;;2.50;2.40;;;19.10;70.60;;;;;;5072963;28;20020;-69
2021/08/27 05:15:09;;;;;;;2.90;2.80;;;19.00;70.10;;;;;;5072921;28;20072;-69
2021/08/27 05:17:40;;;;;;;2.83;2.63;;;19.00;70.80;;;;;;5072872;28;20390;-69
2021/08/27 05:20:08;;;;;;;2.97;2.70;;;18.90;71.40;;;;;;5072695;28;20024;-69
2021/08/27 05:22:36;;;;;;;2.42;2.30;;;18.80;70.90;;;;;;5072960;28;20016;-70
2021/08/27 05:25:03;;;;;;;2.45;2.35;;;18.80;69.40;;;;;;5071512;28;20024;-69
2021/08/27 05:27:31;;;;;;;2.65;2.55;;;18.70;69.00;;;;;;5072665;28;20023;-69
2021/08/27 05:29:58;;;;;;;2.25;2.20;;;18.60;71.60;;;;;;5071593;28;20024;-69
2021/08/27 05:32:26;;;;;;;2.65;2.47;;;18.60;70.30;;;;;;5071411;28;20052;-69
2021/08/27 05:34:53;;;;;;;2.63;2.53;;;18.60;71.60;;;;;;5071582;28;20040;-69
2021/08/27 05:37:21;;;;;;;3.05;2.70;;;18.40;70.50;;;;;;5072640;28;20040;-69
2021/08/27 05:39:48;;;;;;;2.60;2.40;;;18.30;75.60;;;;;;5072734;28;20016;-68
2021/08/27 05:42:15;;;;;;;2.92;2.70;;;18.20;79.60;;;;;;5071359;28;20027;-69
2021/08/27 05:44:43;;;;;;;3.47;3.17;;;18.10;81.40;;;;;;5072649;28;20431;-69
2021/08/27 05:47:10;;;;;;;3.50;2.92;;;17.90;83.70;;;;;;5071400;28;20049;-69
2021/08/27 05:49:38;;;;;;;3.25;3.05;;;17.80;84.10;;;;;;5072717;28;20029;-69
2021/08/27 05:52:06;;;;;;;3.65;3.33;;;17.70;85.50;;;;;;5071763;28;20363;-70
2021/08/27 05:54:33;;;;;;;3.78;3.40;;;17.70;87.40;;;;;;5071200;28;20035;-69
2021/08/27 05:57:01;;;;;;;5.07;3.10;;;17.60;88.40;;;;;;5072581;28;20043;-69
2021/08/27 05:59:28;;;;;;;4.10;3.60;;;17.50;89.60;;;;;;5072224;28;20092;-70
2021/08/27 06:01:56;;;;;;;4.78;3.40;;;17.40;91.00;;;;;;5070857;28;20396;-70
2021/08/27 06:04:23;;;;;;;4.50;3.60;;;17.30;91.40;;;;;;5071070;28;20052;-70
2021/08/27 06:06:53;;;;;;;3.50;3.30;;;17.30;91.70;;;;;;5071028;28;20027;-70
2021/08/27 06:09:21;;;;;;;4.23;3.80;;;17.30;92.00;;;;;;5072489;28;20105;-70
2021/08/27 06:11:48;;;;;;;3.20;3.00;;;17.30;92.00;;;;;;5072286;28;20024;-67
2021/08/27 06:14:15;;;;;;;3.42;2.97;;;17.20;92.60;;;;;;5070783;28;20036;-69
2021/08/27 06:16:43;;;;;;;3.67;3.00;;;17.10;93.40;;;;;;5072274;28;20481;-70
2021/08/27 06:19:10;;;;;;;3.35;3.10;;;17.00;93.80;;;;;;5072320;28;20054;-70
2021/08/27 06:21:39;;;;;;;6.63;3.17;;;17.00;94.10;;;;;;5072244;28;20055;-69
2021/08/27 06:24:07;;;;;;;4.97;3.10;;;16.90;94.70;;;;;;5072109;28;20074;-70
2021/08/27 06:26:35;;;;;;;5.18;2.60;;;16.80;95.00;;;;;;5072101;28;20474;-69
2021/08/27 06:29:03;;;;;;;4.03;3.00;;;16.70;95.40;;;;;;5072061;28;20027;-67
2021/08/27 06:31:31;;;;;;;3.83;2.90;;;16.60;95.90;;;;;;5072278;28;20063;-67
2021/08/27 06:33:59;;;;;;;3.13;2.92;;;16.50;96.40;;;;;;5072297;28;20033;-68
2021/08/27 06:36:26;;;;;;;4.22;3.10;;;16.40;96.20;;;;;;5071166;28;20032;-66
2021/08/27 06:38:53;;;;;;;3.42;3.13;;;16.40;96.80;;;;;;5070923;28;20025;-68
2021/08/27 06:41:21;;;;;;;4.88;3.15;;;16.30;97.20;;;;;;5072346;28;20016;-70
2021/08/27 06:43:48;;;;;;;4.72;3.05;;;16.20;97.50;;;;;;5070890;28;20031;-68
2021/08/27 06:46:22;;;;;;;3.10;2.80;;;16.20;97.40;;;;;;5072355;28;20078;-68
2021/08/27 06:48:51;;;;;;;4.00;3.28;;;16.10;97.70;;;;;;5072385;28;20035;-67
2021/08/27 06:51:19;;;;;;;6.47;3.30;;;16.00;98.40;;;;;;5072236;28;20028;-67
2021/08/27 06:53:46;;;;;;;3.60;3.30;;;15.90;98.80;;;;;;5072256;28;20476;-67
2021/08/27 06:56:14;;;;;;;8.80;3.60;;;15.80;99.60;;;;;;5070998;28;20507;-68
2021/08/27 06:58:41;;;;;;;4.47;3.30;;;15.70;99.90;;;;;;5070817;28;20111;-68
2021/08/27 07:01:08;;;;;;;4.30;3.28;;;15.60;99.90;;;;;;5071862;28;20099;-68
2021/08/27 07:03:37;;;;;;;2.92;2.72;;;15.60;99.90;;;;;;5072666;28;20024;-68
2021/08/27 07:06:05;;;;;;;3.00;2.70;;;15.50;99.90;;;;;;5074020;28;20040;-69
2021/08/27 07:08:32;;;;;;;3.83;2.90;;;15.40;99.90;;;;;;5075341;28;20107;-68
2021/08/27 07:11:01;;;;;;;4.35;3.30;;;15.40;99.90;;;;;;5073766;28;20051;-68
2021/08/27 07:13:30;;;;;;;5.00;3.10;;;15.30;99.90;;;;;;5075164;28;20499;-67
2021/08/27 07:15:58;;;;;;;3.10;2.90;;;15.10;99.90;;;;;;5075198;28;20384;-67
2021/08/27 07:18:27;;;;;;;3.00;2.72;;;15.00;99.90;;;;;;5075108;28;20032;-67
2021/08/27 07:20:55;;;;;;;3.13;2.80;;;14.90;99.90;;;;;;5075068;28;20501;-68
2021/08/27 07:23:23;;;;;;;3.50;3.20;;;14.80;99.90;;;;;;5075250;28;20108;-68
2021/08/27 07:25:51;;;;;;;3.38;2.88;;;14.70;99.90;;;;;;5073966;28;20037;-68
2021/08/27 07:28:19;;;;;;;3.53;2.92;;;14.60;99.90;;;;;;5075094;28;20474;-68
2021/08/27 07:30:47;;;;;;;3.00;2.70;;;14.50;99.90;;;;;;5075149;28;20029;-68
2021/08/27 07:33:14;;;;;;;3.35;2.92;;;14.40;99.90;;;;;;5073580;28;20412;-67
2021/08/27 07:35:41;;;;;;;3.70;3.33;;;14.30;99.90;;;;;;5074862;28;20021;-68
2021/08/27 07:38:11;;;;;;;3.75;3.30;;;14.20;99.90;;;;;;5073367;28;20389;-68
2021/08/27 07:40:38;;;;;;;6.47;3.97;;;14.20;99.90;;;;;;5074811;28;20020;-69
2021/08/27 07:43:06;;;;;;;4.20;3.90;;;14.30;99.90;;;;;;5073525;28;20436;-69
2021/08/27 07:45:33;;;;;;;5.35;4.15;;;14.20;99.90;;;;;;5073418;28;20032;-68
2021/08/27 07:48:01;;;;;;;7.65;3.90;;;14.20;99.90;;;;;;5073406;28;20124;-68
2021/08/27 07:50:28;;;;;;;4.45;3.67;;;14.20;99.90;;;;;;5074765;28;20051;-68
2021/08/27 07:52:55;;;;;;;3.97;3.67;;;14.30;99.90;;;;;;5073266;28;20142;-68
2021/08/27 07:55:23;;;;;;;4.50;4.18;;;14.30;99.90;;;;;;5073129;28;20421;-68
2021/08/27 07:57:50;;;;;;;5.35;4.82;;;14.30;99.90;;;;;;5073104;28;20060;-68
2021/08/27 08:00:17;;;;;;;5.88;4.80;;;14.30;99.90;;;;;;5074541;28;20069;-68
2021/08/27 08:02:45;;;;;;;5.78;5.20;;;14.30;99.90;;;;;;5074440;28;20020;-68
2021/08/27 08:05:12;;;;;;;7.65;5.45;;;14.30;99.90;;;;;;5074434;28;20017;-68
2021/08/27 08:07:40;;;;;;;5.15;4.63;;;14.30;99.90;;;;;;5074516;28;20385;-68
2021/08/27 08:10:07;;;;;;;7.97;4.70;;;14.30;99.90;;;;;;5073397;28;20032;-67
2021/08/27 08:12:35;;;;;;;5.57;3.80;;;14.30;99.90;;;;;;5074251;28;20034;-69
2021/08/27 08:15:02;;;;;;;4.15;3.80;;;14.30;99.90;;;;;;5073457;28;20124;-68
2021/08/27 08:17:29;;;;;;;7.68;3.15;;;14.30;99.90;;;;;;5074155;28;20024;-68
2021/08/27 08:19:57;;;;;;;3.13;2.47;;;14.30;99.90;;;;;;5074249;28;20024;-68
2021/08/27 08:22:24;;;;;;;3.33;2.75;;;14.30;99.90;;;;;;5074161;28;20078;-68
2021/08/27 08:24:52;;;;;;;3.17;2.88;;;14.30;99.90;;;;;;5074143;28;20099;-68
2021/08/27 08:27:19;;;;;;;3.70;3.38;;;14.30;99.90;;;;;;5072684;28;20028;-68
2021/08/27 08:29:46;;;;;;;3.30;3.00;;;14.20;99.90;;;;;;5073976;28;20063;-68
2021/08/27 08:32:14;;;;;;;6.50;3.63;;;14.30;99.90;;;;;;5072498;28;20032;-68
2021/08/27 08:34:41;;;;;;;3.40;3.20;;;14.30;98.20;;;;;;5073857;28;20056;-68
2021/08/27 08:37:09;;;;;;;3.17;2.60;;;14.30;98.10;;;;;;5072563;28;20052;-68
2021/08/27 08:39:37;;;;;;;3.28;2.80;;;14.30;95.80;;;;;;5072746;28;20385;-70
2021/08/27 08:42:06;;;;;;;3.33;2.70;;;14.30;95.80;;;;;;5073743;28;20029;-69
2021/08/27 08:44:34;;;;;;;3.00;2.72;;;14.40;94.70;;;;;;5073700;28;20029;-68
2021/08/27 08:47:03;;;;;;;2.10;2.00;;;14.30;95.80;;;;;;5073467;28;20016;-67
2021/08/27 08:49:33;;;;;;;2.05;1.85;;;14.30;94.60;;;;;;5072177;28;20073;-70
2021/08/27 08:52:02;;;;;;;2.30;2.20;;;14.30;94.50;;;;;;5073780;28;20024;-69
2021/08/27 08:54:31;;;;;;;3.47;2.40;;;14.30;94.80;;;;;;5072061;28;20024;-69
2021/08/27 08:56:58;;;;;;;3.13;2.28;;;14.20;95.60;;;;;;5072002;28;20112;-70
2021/08/27 08:59:27;;;;;;;2.08;1.98;;;14.10;95.10;;;;;;5073373;28;20381;-69
2021/08/27 09:01:54;;;;;;;2.30;2.08;;;14.10;94.70;;;;;;5073363;28;20016;-69
2021/08/27 09:04:23;;;;;;;2.35;2.25;;;14.10;94.90;;;;;;5071993;28;20477;-67
2021/08/27 09:06:51;;;;;;;2.88;2.30;;;14.10;94.70;;;;;;5071994;28;20027;-70
2021/08/27 09:09:31;;;;;;;2.53;2.10;;;14.10;95.20;;;;;;5071930;28;20476;-69
2021/08/27 09:11:58;;;;;;;;;;;14.10;94.40;;;;;;5073573;28;20563;-70
2021/08/27 09:14:30;;;;;;;2.20;2.10;;;14.00;94.30;;;;;;5073032;28;19912;-69
2021/08/27 09:17:06;;;;;;;2.30;2.10;;;14.00;94.70;;;;;;5071910;28;20032;-67
2021/08/27 09:19:53;;;;;;;2.30;2.20;;;14.00;94.50;;;;;;5073137;28;20021;-68
2021/08/27 09:22:22;;;;;;;2.50;2.30;;;14.00;94.50;;;;;;5073216;28;20023;-68
2021/08/27 09:25:09;;;;;;;1.95;1.67;;;13.90;94.50;;;;;;5071849;28;20111;-68
2021/08/27 09:27:57;;;;;;;2.83;2.00;;;14.00;94.50;;;;;;5072785;28;20063;-68
2021/08/27 09:30:24;;;;;;;2.00;1.90;;;13.90;95.00;;;;;;5072991;28;20075;-68
2021/08/27 09:32:51;;;;;;;2.10;2.00;;;13.90;94.80;;;;;;5072990;28;20422;-68
2021/08/27 09:35:21;;;;;;;1.95;1.85;;;13.80;95.00;;;;;;5071586;28;20474;-67
2021/08/27 09:37:51;;;;;;;2.58;2.22;;;13.70;95.30;;;;;;5072816;28;20100;-67
2021/08/27 09:40:27;;;;;;;2.30;2.10;;;13.70;95.30;;;;;;5071486;28;20473;-68
2021/08/27 09:42:56;;;;;;;2.10;2.00;;;13.60;95.50;;;;;;5072759;28;20040;-67
2021/08/27 09:45:44;;;;;;;2.50;2.30;;;13.60;95.60;;;;;;5071402;28;20021;-66
2021/08/27 09:48:13;;;;;;;2.65;2.45;;;13.60;95.60;;;;;;5071262;28;20086;-68
2021/08/27 09:50:44;;;;;;;2.30;2.17;;;13.50;95.90;;;;;;5072755;28;20030;-67
2021/08/27 09:53:14;;;;;;;2.28;2.17;;;13.40;95.90;;;;;;5073301;28;20103;-68
2021/08/27 09:55:59;;;;;;;2.65;2.20;;;13.40;95.90;;;;;;5072762;28;20031;-68
2021/08/27 09:58:27;;;;;;;1.90;1.80;;;13.40;96.30;;;;;;5071350;28;20038;-69
2021/08/27 10:01:05;;;;;;;2.38;2.20;;;13.40;96.40;;;;;;5072679;28;20043;-67
2021/08/27 10:03:33;;;;;;;1.92;1.83;;;13.30;96.30;;;;;;5071321;28;20550;-67
2021/08/27 10:06:05;;;;;;;2.20;2.10;;;13.30;96.20;;;;;;5072656;28;20055;-67
2021/08/27 10:08:33;;;;;;;2.60;2.40;;;13.30;96.40;;;;;;5072680;28;20028;-69
2021/08/27 10:11:18;;;;;;;2.47;2.38;;;13.30;96.50;;;;;;5072456;28;20028;-67
2021/08/27 10:13:46;;;;;;;2.85;2.67;;;13.30;96.30;;;;;;5072408;28;20048;-67
2021/08/27 10:16:14;;;;;;;2.50;2.40;;;13.30;96.40;;;;;;5072573;28;20078;-68
2021/08/27 10:18:42;;;;;;;2.50;2.40;;;13.30;96.30;;;;;;5072576;28;20078;-68
2021/08/27 10:21:10;;;;;;;2.60;2.50;;;13.30;96.40;;;;;;5072627;28;20025;-68
2021/08/27 10:23:37;;;;;;;3.05;2.65;;;13.30;96.30;;;;;;5072393;28;20021;-68
2021/08/27 10:26:21;;;;;;;2.53;2.40;;;13.20;96.60;;;;;;5072433;28;20017;-68
2021/08/27 10:28:49;;;;;;;2.65;2.42;;;13.20;96.80;;;;;;5071071;28;20481;-68
2021/08/27 10:31:17;;;;;;;2.30;2.20;;;13.10;96.50;;;;;;5072342;28;20031;-68
2021/08/27 10:33:57;;;;;;;2.65;2.50;;;13.20;96.30;;;;;;5070900;28;20033;-69
2021/08/27 10:36:24;;;;;;;2.75;2.55;;;13.20;96.30;;;;;;5072325;28;20025;-69
2021/08/27 10:38:55;;;;;;;2.45;2.35;;;13.10;96.50;;;;;;5073901;28;20495;-70
2021/08/27 10:41:28;;;;;;;2.83;2.63;;;13.10;96.50;;;;;;5076036;28;20020;-68
2021/08/27 10:44:05;;;;;;;2.67;2.47;;;13.00;96.60;;;;;;5076045;28;20477;-68
2021/08/27 10:46:48;;;;;;;2.72;2.60;;;13.00;96.70;;;;;;5074904;28;20413;-68
2021/08/27 10:49:34;;;;;;;2.90;2.70;;;13.00;96.80;;;;;;5076022;28;20032;-68
2021/08/27 10:52:35;;;;;;;2.65;2.45;;;13.00;96.80;;;;;;5075954;28;20023;-69
2021/08/27 10:55:15;;;;;;;2.88;2.67;;;13.00;96.80;;;;;;5075850;28;20025;-68
2021/08/27 10:57:56;;;;;;;3.10;2.90;;;12.90;96.80;;;;;;5076062;28;20024;-68
2021/08/27 11:00:36;;;;;;;2.90;2.80;;;12.90;96.90;;;;;;5076207;28;20021;-68
2021/08/27 11:03:05;;;;;;;2.80;2.70;;;12.90;96.90;;;;;;5075843;28;20427;-69
2021/08/27 11:05:39;;;;;;;2.85;2.65;;;12.80;96.90;;;;;;5075804;28;20350;-67
2021/08/27 11:08:14;;;;;;;2.80;2.60;;;12.80;97.00;;;;;;5075623;28;20381;-67
2021/08/27 11:10:44;;;;;;;2.60;2.50;;;12.80;96.80;;;;;;5075714;28;20052;-66
2021/08/27 11:13:15;;;;;;;2.80;2.60;;;12.80;96.90;;;;;;5075452;28;20040;-66
2021/08/27 11:15:42;;;;;;;;;;;12.80;96.90;;;;;;5075952;28;20151;-66
2021/08/27 11:18:25;;;;;;;2.63;2.50;;;12.80;97.00;;;;;;5074076;28;19919;-66
2021/08/27 11:20:54;;;;;;;2.80;2.70;;;12.70;97.10;;;;;;5075417;28;20023;-65
2021/08/27 11:23:22;;;;;;;2.58;2.38;;;12.70;97.00;;;;;;5075370;28;20424;-66
2021/08/27 11:26:19;;;;;;;2.40;2.30;;;12.60;97.10;;;;;;5074047;28;20021;-66
2021/08/27 11:28:46;;;;;;;2.13;2.03;;;12.70;97.10;;;;;;5063026;28;20039;-66
2021/08/27 11:31:14;;;;;;;3.55;2.53;;;12.60;97.20;;;;;;5075158;28;20027;-66
2021/08/27 11:33:48;;;;;;;2.53;2.30;;;12.60;97.40;;;;;;5075123;28;20066;-68
2021/08/27 11:36:17;;;;;;;2.30;2.20;;;12.60;97.40;;;;;;5075120;28;20027;-67
2021/08/27 11:38:52;;;;;;;4.45;2.40;;;12.60;97.50;;;;;;5075081;28;20033;-67
2021/08/27 11:41:21;;;;;;;2.70;2.50;;;12.50;97.80;;;;;;5073781;28;20059;-67
2021/08/27 11:44:02;;;;;;;3.13;2.22;;;12.50;97.90;;;;;;5074967;28;20024;-67
2021/08/27 11:46:33;;;;;;;2.72;2.35;;;12.40;98.30;;;;;;5075122;28;20028;-66
2021/08/27 11:49:04;;;;;;;2.45;2.25;;;12.30;98.40;;;;;;5075024;28;20024;-67
2021/08/27 11:51:42;;;;;;;2.15;2.05;;;12.30;98.60;;;;;;5073795;28;20428;-67
2021/08/27 11:54:24;;;;;;;2.40;2.20;;;12.10;99.00;;;;;;5074899;28;20407;-67
2021/08/27 11:56:54;;;;;;;2.50;2.40;;;12.10;99.10;;;;;;5074851;28;20031;-67
2021/08/27 11:59:27;;;;;;;2.90;2.60;;;12.10;99.60;;;;;;5074761;28;20032;-67
2021/08/27 12:01:56;;;;;;;2.70;2.50;;;12.10;98.70;;;;;;5074692;28;20036;-67
2021/08/27 12:04:29;;;;;;;2.95;2.75;;;12.20;98.60;;;;;;5074707;28;20043;-67
2021/08/27 12:07:14;;;;;;;2.72;2.58;;;12.10;98.70;;;;;;5074538;28;20023;-67
2021/08/27 12:09:42;;;;;;;2.83;2.60;;;12.10;98.80;;;;;;5074477;28;20020;-67
2021/08/27 12:12:30;;;;;;;2.63;2.50;;;12.10;98.90;;;;;;5074381;28;20016;-66
2021/08/27 12:14:57;;;;;;;3.22;2.90;;;12.00;98.90;;;;;;5074241;28;20124;-66
2021/08/27 12:17:29;;;;;;;2.78;2.67;;;11.90;99.10;;;;;;5074241;28;20039;-66
2021/08/27 12:20:02;;;;;;;2.90;2.70;;;11.90;99.40;;;;;;5074269;28;20016;-66
2021/08/27 12:22:39;;;;;;;3.13;2.85;;;11.90;99.20;;;;;;5074129;28;20025;-67
2021/08/27 12:25:07;;;;;;;2.90;2.70;;;11.80;99.50;;;;;;5074172;28;20028;-66
2021/08/27 12:27:48;;;;;;;2.85;2.65;;;11.80;99.80;;;;;;5073809;28;20501;-67
2021/08/27 12:30:16;;;;;;;2.70;2.50;;;11.90;99.30;;;;;;5074104;28;20482;-66
2021/08/27 12:32:44;;;;;;;3.30;3.10;;;11.90;99.30;;;;;;5073913;28;20016;-65
2021/08/27 12:35:14;;;;;;;3.00;2.80;;;11.90;99.20;;;;;;5073855;28;20481;-65
2021/08/27 12:37:43;;;;;;;3.10;2.90;;;11.80;99.20;;;;;;5072546;28;20040;-65
2021/08/27 12:40:20;;;;;;;3.50;3.30;;;11.80;99.50;;;;;;5073698;28;20024;-65
2021/08/27 12:43:03;;;;;;;3.75;3.45;;;11.70;99.60;;;;;;5072412;28;20410;-65
2021/08/27 12:45:55;;;;;;;3.33;3.17;;;11.60;99.60;;;;;;5073786;28;20025;-65
2021/08/27 12:48:25;;;;;;;3.88;3.50;;;11.60;99.50;;;;;;5073615;28;20025;-66
2021/08/27 12:51:01;;;;;;;3.70;3.50;;;11.60;99.70;;;;;;5073538;28;20024;-65
2021/08/27 12:53:32;;;;;;;3.60;3.40;;;11.50;99.40;;;;;;5073534;28;20016;-66
2021/08/27 12:56:23;;;;;;;3.60;3.30;;;11.50;99.30;;;;;;5073505;28;20029;-66
2021/08/27 12:58:52;;;;;;;;;;;11.50;99.40;;;;;;5073857;28;20495;-66
2021/08/27 13:01:25;;;;;;;3.50;3.30;;;11.50;99.60;;;;;;5073038;28;19904;-66
2021/08/27 13:03:58;;;;;;;3.35;3.15;;;11.50;99.10;;;;;;5072019;28;20366;-66
2021/08/27 13:06:42;;;;;;;3.00;2.80;;;11.40;98.80;;;;;;5073351;28;20016;-66